createdAt,value
2022-12-12T00:01:25.784Z,98.51
2022-12-12T00:04:27.379Z,98.44
2022-12-12T00:07:28.973Z,98.14
2022-12-12T00:10:30.682Z,98.10
2022-12-12T00:13:32.558Z,97.96
2022-12-12T00:16:35.759Z,97.75
2022-12-12T00:19:37.534Z,97.46
2022-12-12T00:22:39.111Z,97.80
2022-12-12T00:25:40.885Z,97.90
2022-12-12T00:28:42.496Z,97.73
2022-12-12T00:31:45.641Z,97.74
2022-12-12T00:34:47.412Z,97.49
2022-12-12T00:37:49.209Z,97.48
2022-12-12T00:40:54.969Z,97.18
2022-12-12T00:43:56.766Z,97.08
2022-12-12T00:46:59.950Z,97.35
2022-12-12T00:50:01.938Z,97.46
2022-12-12T00:53:03.736Z,97.42
2022-12-12T00:56:05.604Z,97.72
2022-12-12T00:59:07.362Z,97.48
2022-12-12T01:02:10.797Z,97.63
2022-12-12T01:05:12.820Z,97.38
2022-12-12T01:08:14.744Z,97.28
2022-12-12T01:11:17.546Z,97.37
2022-12-12T01:14:19.240Z,97.41
2022-12-12T01:17:22.428Z,97.04
2022-12-12T01:20:25.331Z,96.83
2022-12-12T01:23:27.327Z,96.81
2022-12-12T01:26:29.064Z,96.81
2022-12-12T01:29:30.732Z,96.71
2022-12-12T01:32:33.851Z,96.32
2022-12-12T01:35:35.453Z,96.46
2022-12-12T01:38:37.172Z,96.38
2022-12-12T01:41:38.830Z,96.45
2022-12-12T01:44:42.083Z,96.42
2022-12-12T01:47:45.057Z,96.15
2022-12-12T01:50:46.773Z,96.53
2022-12-12T01:53:50.623Z,96.20
2022-12-12T01:56:53.272Z,96.20
2022-12-12T01:59:55.205Z,96.24
2022-12-12T02:02:58.257Z,95.47
2022-12-12T02:06:02.344Z,95.24
2022-12-12T02:09:05.111Z,95.82
2022-12-12T02:12:06.920Z,95.46
2022-12-12T02:15:09.098Z,95.35
2022-12-12T02:18:16.199Z,95.59
2022-12-12T02:21:22.763Z,95.50
2022-12-12T02:24:35.019Z,95.21
2022-12-12T02:27:57.608Z,94.96
2022-12-12T02:31:13.889Z,94.93
2022-12-12T02:34:19.537Z,94.78
2022-12-12T02:37:27.016Z,94.80
2022-12-12T02:40:33.935Z,94.32
2022-12-12T02:43:38.994Z,94.48
2022-12-12T02:46:46.910Z,94.46
2022-12-12T02:49:50.155Z,94.21
2022-12-12T02:52:51.881Z,94.57
2022-12-12T02:56:01.122Z,94.76
2022-12-12T02:59:02.702Z,94.99
2022-12-12T03:02:23.481Z,94.73
2022-12-12T03:06:00.372Z,94.09
2022-12-12T03:09:07.664Z,93.68
2022-12-12T03:12:11.505Z,94.50
2022-12-12T03:15:16.493Z,94.25
2022-12-12T03:18:23.627Z,94.12
2022-12-12T03:21:29.261Z,94.13
2022-12-12T03:24:34.369Z,93.15
2022-12-12T03:27:39.008Z,93.28
2022-12-12T03:30:42.899Z,93.74
2022-12-12T03:33:47.030Z,94.08
2022-12-12T03:36:50.464Z,94.02
2022-12-12T03:39:55.014Z,94.52
2022-12-12T03:42:59.564Z,94.67
2022-12-12T03:46:06.239Z,95.15
2022-12-12T03:49:12.643Z,95.20
2022-12-12T03:52:16.988Z,95.24
2022-12-12T03:55:22.472Z,95.22
2022-12-12T03:58:27.825Z,95.07
2022-12-12T04:01:35.425Z,94.45
2022-12-12T04:04:41.869Z,94.76
2022-12-12T04:07:45.267Z,94.59
2022-12-12T04:11:08.994Z,94.50
2022-12-12T04:14:17.385Z,94.79
2022-12-12T04:17:22.248Z,94.77
2022-12-12T04:20:46.095Z,94.55
2022-12-12T04:24:01.155Z,94.60
2022-12-12T04:27:05.092Z,94.41
2022-12-12T04:30:07.867Z,94.21
2022-12-12T04:33:11.676Z,95.14
2022-12-12T04:36:16.850Z,94.95
2022-12-12T04:39:21.505Z,95.12
2022-12-12T04:42:25.126Z,95.19
2022-12-12T04:45:29.013Z,94.74
2022-12-12T04:48:35.710Z,94.38
2022-12-12T04:51:44.101Z,94.69
2022-12-12T04:54:48.040Z,94.23
2022-12-12T04:57:50.692Z,93.79
2022-12-12T05:00:57.505Z,93.55
2022-12-12T05:04:01.537Z,94.18
2022-12-12T05:07:07.665Z,94.08
2022-12-12T05:10:11.777Z,94.18
2022-12-12T05:13:15.839Z,94.42
2022-12-12T05:16:23.679Z,93.88
2022-12-12T05:19:25.253Z,93.74
2022-12-12T05:22:28.242Z,93.74
2022-12-12T05:25:29.982Z,94.57
2022-12-12T05:28:31.638Z,94.57
2022-12-12T05:31:33.198Z,94.26
2022-12-12T05:34:34.947Z,94.29
2022-12-12T05:37:38.010Z,93.93
2022-12-12T05:40:39.627Z,94.10
2022-12-12T05:43:41.267Z,93.36
2022-12-12T05:46:43.001Z,93.93
2022-12-12T05:49:44.798Z,93.40
2022-12-12T05:52:47.998Z,93.99
2022-12-12T05:55:50.632Z,93.92
2022-12-12T05:58:52.272Z,93.82
2022-12-12T06:01:53.986Z,93.35
2022-12-12T06:04:55.877Z,93.77
2022-12-12T06:07:58.872Z,93.26
2022-12-12T06:11:00.708Z,93.25
2022-12-12T06:14:02.301Z,93.71
2022-12-12T06:17:04.059Z,93.85
2022-12-12T06:20:06.325Z,93.63
2022-12-12T06:23:09.441Z,93.89
2022-12-12T06:26:12.194Z,93.34
2022-12-12T06:29:14.842Z,93.29
2022-12-12T06:32:16.450Z,93.14
2022-12-12T06:35:18.397Z,93.35
2022-12-12T06:38:21.519Z,92.94
2022-12-12T06:41:24.089Z,93.35
2022-12-12T06:44:25.768Z,93.28
2022-12-12T06:47:27.496Z,93.13
2022-12-12T06:50:29.502Z,92.93
2022-12-12T06:53:32.660Z,93.37
2022-12-12T06:56:34.308Z,93.85
2022-12-12T06:59:36.143Z,93.90
2022-12-12T07:02:37.780Z,94.18
2022-12-12T07:05:39.386Z,94.16
2022-12-12T07:08:42.692Z,93.88
2022-12-12T07:11:44.345Z,93.44
2022-12-12T07:14:45.831Z,93.40
2022-12-12T07:17:47.364Z,93.40
2022-12-12T07:20:48.959Z,93.44
2022-12-12T07:23:52.118Z,93.09
2022-12-12T07:26:54.041Z,93.38
2022-12-12T07:29:55.682Z,93.40
2022-12-12T07:32:57.315Z,93.46
2022-12-12T07:36:00.128Z,93.32
2022-12-12T07:39:03.773Z,93.38
2022-12-12T07:42:05.383Z,93.27
2022-12-12T07:45:08.033Z,93.08
2022-12-12T07:48:09.724Z,93.93
2022-12-12T07:51:11.589Z,93.52
2022-12-12T07:54:14.626Z,93.30
2022-12-12T07:57:16.393Z,93.65
2022-12-12T08:00:18.935Z,93.23
2022-12-12T08:03:20.502Z,93.22
2022-12-12T08:06:22.698Z,93.56
2022-12-12T08:09:25.690Z,93.55
2022-12-12T08:12:28.737Z,93.73
2022-12-12T08:15:30.511Z,93.71
2022-12-12T08:18:34.881Z,94.38
2022-12-12T08:21:36.381Z,94.87
2022-12-12T08:24:39.383Z,95.04
2022-12-12T08:27:41.016Z,94.87
2022-12-12T08:30:42.620Z,95.24
2022-12-12T08:33:44.255Z,94.75
2022-12-12T08:36:45.927Z,95.47
2022-12-12T08:39:52.806Z,95.58
2022-12-12T08:42:57.032Z,95.16
2022-12-12T08:45:59.331Z,95.61
2022-12-12T08:49:01.024Z,95.62
2022-12-12T08:52:06.069Z,95.52
2022-12-12T08:55:09.375Z,95.56
2022-12-12T08:58:10.981Z,95.50
2022-12-12T09:01:13.179Z,95.40
2022-12-12T09:04:14.819Z,95.73
2022-12-12T09:07:17.721Z,96.23
2022-12-12T09:10:20.764Z,96.59
2022-12-12T09:13:22.328Z,95.93
2022-12-12T09:16:26.438Z,95.75
2022-12-12T09:19:28.211Z,95.62
2022-12-12T09:22:29.849Z,95.26
2022-12-12T09:25:32.864Z,95.29
2022-12-12T09:28:34.880Z,95.68
2022-12-12T09:31:39.476Z,95.33
2022-12-12T09:34:41.115Z,95.73
2022-12-12T09:37:42.701Z,95.71
2022-12-12T09:40:49.096Z,95.68
2022-12-12T09:43:54.529Z,95.08
2022-12-12T09:47:00.363Z,95.42
2022-12-12T09:50:04.392Z,95.38
2022-12-12T09:53:10.262Z,95.58
2022-12-12T09:56:18.284Z,95.85
2022-12-12T09:59:22.357Z,95.55
2022-12-12T10:02:33.995Z,95.43
2022-12-12T10:05:40.384Z,95.58
2022-12-12T10:08:45.456Z,95.23
2022-12-12T10:11:53.127Z,95.36
2022-12-12T10:14:56.316Z,95.08
2022-12-12T10:17:59.184Z,94.71
2022-12-12T10:21:02.973Z,94.65
2022-12-12T10:24:08.332Z,95.34
2022-12-12T10:27:13.039Z,94.69
2022-12-12T10:30:16.669Z,94.74
2022-12-12T10:33:24.907Z,94.67
2022-12-12T10:36:41.435Z,94.24
2022-12-12T10:39:48.205Z,93.92
2022-12-12T10:42:54.152Z,94.48
2022-12-12T10:46:08.935Z,94.31
2022-12-12T10:49:13.817Z,94.33
2022-12-12T10:52:17.573Z,93.83
2022-12-12T10:55:21.019Z,93.77
2022-12-12T10:58:26.437Z,93.79
2022-12-12T11:02:07.927Z,93.82
2022-12-12T11:04:57.654Z,93.68
2022-12-12T11:08:01.455Z,92.92
2022-12-12T11:11:05.823Z,92.15
2022-12-12T11:14:22.238Z,92.15
2022-12-12T11:17:25.812Z,91.32
2022-12-12T11:20:28.399Z,91.63
2022-12-12T11:23:31.374Z,91.88
2022-12-12T11:26:38.902Z,92.15
2022-12-12T11:29:44.588Z,92.21
2022-12-12T11:32:47.411Z,91.59
2022-12-12T11:35:54.807Z,91.46
2022-12-12T11:38:57.162Z,90.96
2022-12-12T11:42:01.003Z,91.51
2022-12-12T11:45:05.176Z,92.26
2022-12-12T11:48:32.131Z,91.57
2022-12-12T11:51:35.523Z,91.21
2022-12-12T11:54:37.064Z,91.38
2022-12-12T11:57:48.562Z,91.30
2022-12-12T12:00:55.558Z,91.59
2022-12-12T12:04:10.111Z,92.19
2022-12-12T12:07:22.842Z,92.18
2022-12-12T12:10:32.622Z,92.06
2022-12-12T12:13:41.212Z,92.63
2022-12-12T12:16:51.890Z,93.00
2022-12-12T12:19:57.090Z,93.10
2022-12-12T12:23:05.438Z,93.11
2022-12-12T12:26:09.111Z,92.69
2022-12-12T12:29:25.230Z,92.63
2022-12-12T12:32:34.294Z,93.13
2022-12-12T12:35:42.474Z,91.48
2022-12-12T12:38:54.610Z,91.86
2022-12-12T12:42:05.346Z,91.10
2022-12-12T12:45:13.143Z,91.52
2022-12-12T12:48:19.586Z,91.24
2022-12-12T12:51:24.575Z,90.80
2022-12-12T12:57:36.506Z,91.23
2022-12-12T13:00:38.621Z,90.64
2022-12-12T13:03:45.709Z,90.82
2022-12-12T13:06:50.718Z,89.79
2022-12-12T13:09:54.638Z,89.69
2022-12-12T13:12:59.037Z,88.99
2022-12-12T13:16:04.701Z,88.07
2022-12-12T13:19:11.490Z,87.56
2022-12-12T13:22:17.558Z,86.98
2022-12-12T13:25:23.385Z,87.20
2022-12-12T13:28:27.222Z,86.98
2022-12-12T13:31:36.280Z,86.95
2022-12-12T13:34:41.564Z,86.74
2022-12-12T13:37:46.918Z,86.98
2022-12-12T13:41:09.924Z,86.04
2022-12-12T13:44:30.902Z,85.10
2022-12-12T13:47:55.435Z,85.36
2022-12-12T13:51:15.623Z,84.95
2022-12-12T13:54:44.692Z,85.15
2022-12-12T13:58:19.464Z,85.48
2022-12-12T14:01:32.101Z,85.37
2022-12-12T14:04:35.437Z,85.43
2022-12-12T14:07:37.714Z,85.89
2022-12-12T14:10:41.661Z,85.56
2022-12-12T14:13:45.942Z,85.60
2022-12-12T14:16:51.955Z,85.72
2022-12-12T14:19:55.048Z,85.76
2022-12-12T14:23:11.598Z,85.86
2022-12-12T14:26:40.456Z,85.72
2022-12-12T14:29:44.142Z,85.89
2022-12-12T14:32:50.769Z,86.33
2022-12-12T14:35:57.026Z,86.02
2022-12-12T14:39:06.686Z,85.85
2022-12-12T14:42:16.880Z,85.67
2022-12-12T14:45:30.727Z,85.50
2022-12-12T14:48:32.862Z,85.87
2022-12-12T14:51:35.923Z,85.75
2022-12-12T14:54:37.837Z,85.85
2022-12-12T14:57:40.003Z,86.70
2022-12-12T15:00:47.691Z,87.55
2022-12-12T15:03:49.945Z,88.22
2022-12-12T15:06:52.397Z,88.58
2022-12-12T15:09:54.345Z,88.79
2022-12-12T15:12:56.356Z,88.77
2022-12-12T15:15:59.445Z,89.09
2022-12-12T15:19:01.847Z,89.20
2022-12-12T15:22:03.928Z,89.49
2022-12-12T15:25:15.982Z,89.44
2022-12-12T15:28:20.118Z,89.54
2022-12-12T15:31:23.274Z,89.56
2022-12-12T15:34:29.800Z,89.54
2022-12-12T15:37:31.982Z,89.75
2022-12-12T15:40:34.820Z,89.73
2022-12-12T15:43:37.334Z,89.78
2022-12-12T15:46:40.395Z,89.73
2022-12-12T15:49:42.896Z,89.88
2022-12-12T15:52:45.538Z,90.11
2022-12-12T15:55:52.564Z,90.01
2022-12-12T15:58:58.666Z,90.46
2022-12-12T16:02:15.075Z,90.51
2022-12-12T16:05:24.753Z,90.45
2022-12-12T16:08:31.712Z,90.81
2022-12-12T16:11:39.322Z,90.89
2022-12-12T16:14:42.764Z,90.70
2022-12-12T16:17:57.376Z,90.68
2022-12-12T16:21:01.002Z,90.86
2022-12-12T16:24:10.148Z,90.67
2022-12-12T16:27:12.172Z,90.82
2022-12-12T16:30:14.913Z,90.70
2022-12-12T16:33:22.843Z,90.79
2022-12-12T16:36:25.794Z,90.72
2022-12-12T16:39:27.582Z,91.11
2022-12-12T16:42:29.224Z,91.02
2022-12-12T16:45:31.040Z,91.07
2022-12-12T16:48:33.467Z,91.23
2022-12-12T16:51:39.540Z,91.14
2022-12-12T16:54:41.407Z,91.43
2022-12-12T16:57:42.958Z,91.13
2022-12-12T17:00:45.193Z,91.48
2022-12-12T17:03:47.122Z,91.30
2022-12-12T17:06:53.348Z,91.86
2022-12-12T17:09:55.048Z,91.90
2022-12-12T17:12:57.024Z,91.56
2022-12-12T17:15:58.733Z,91.80
2022-12-12T17:19:00.479Z,92.36
2022-12-12T17:22:03.880Z,92.22
2022-12-12T17:25:06.225Z,92.41
2022-12-12T17:28:07.845Z,92.36
2022-12-12T17:31:09.859Z,92.71
2022-12-12T17:34:11.556Z,92.37
2022-12-12T17:37:14.521Z,92.38
2022-12-12T17:40:16.658Z,92.68
2022-12-12T17:43:19.183Z,92.59
2022-12-12T17:46:20.879Z,92.28
2022-12-12T17:49:22.504Z,93.17
2022-12-12T17:52:25.650Z,92.92
2022-12-12T17:55:51.382Z,92.76
2022-12-12T17:58:49.819Z,92.71
2022-12-12T18:01:54.575Z,92.77
2022-12-12T18:04:56.266Z,92.71
2022-12-12T18:07:59.408Z,92.80
2022-12-12T18:11:01.033Z,93.00
2022-12-12T18:14:06.192Z,92.72
2022-12-12T18:17:07.883Z,93.26
2022-12-12T18:20:10.382Z,93.50
2022-12-12T18:23:13.325Z,93.52
2022-12-12T18:26:21.799Z,93.35
2022-12-12T18:29:24.232Z,93.44
2022-12-12T18:32:25.788Z,93.56
2022-12-12T18:35:28.761Z,93.67
2022-12-12T18:38:32.184Z,93.50
2022-12-12T18:41:36.447Z,93.23
2022-12-12T18:44:38.277Z,93.07
2022-12-12T18:47:40.080Z,93.62
2022-12-12T18:50:41.650Z,93.42
2022-12-12T18:53:47.045Z,93.94
2022-12-12T18:56:49.047Z,93.95
2022-12-12T18:59:50.607Z,94.28
2022-12-12T19:02:52.216Z,94.39
2022-12-12T19:05:53.862Z,93.97
2022-12-12T19:08:56.897Z,94.57
2022-12-12T19:12:02.344Z,94.64
2022-12-12T19:15:20.191Z,95.04
2022-12-12T19:18:21.775Z,94.87
2022-12-12T19:21:24.645Z,94.75
2022-12-12T19:24:27.685Z,95.26
2022-12-12T19:27:31.575Z,95.29
2022-12-12T19:30:33.779Z,95.54
2022-12-12T19:33:35.859Z,95.62
2022-12-12T19:36:38.049Z,95.55
2022-12-12T19:39:41.146Z,95.86
2022-12-12T19:42:42.868Z,95.63
2022-12-12T19:45:44.651Z,95.34
2022-12-12T19:48:46.687Z,95.29
2022-12-12T19:51:48.584Z,95.12
2022-12-12T19:54:51.610Z,95.26
2022-12-12T19:57:53.340Z,95.65
2022-12-12T20:00:54.928Z,95.40
2022-12-12T20:03:57.401Z,95.17
2022-12-12T20:06:59.139Z,95.73
2022-12-12T20:10:02.146Z,95.19
2022-12-12T20:13:03.888Z,95.52
2022-12-12T20:16:06.500Z,95.83
2022-12-12T20:19:08.305Z,95.69
2022-12-12T20:22:10.027Z,95.90
2022-12-12T20:25:13.140Z,95.37
2022-12-12T20:28:15.037Z,95.56
2022-12-12T20:31:17.767Z,95.81
2022-12-12T20:34:22.516Z,95.97
2022-12-12T20:37:24.429Z,95.55
2022-12-12T20:40:29.098Z,95.71
2022-12-12T20:43:31.040Z,95.86
2022-12-12T20:46:33.511Z,95.38
2022-12-12T20:49:36.274Z,95.26
2022-12-12T20:52:37.887Z,95.51
2022-12-12T20:55:40.978Z,95.39
2022-12-12T20:58:43.039Z,95.66
2022-12-12T21:01:44.833Z,95.28
2022-12-12T21:04:46.516Z,95.25
2022-12-12T21:07:48.412Z,95.01
2022-12-12T21:10:51.721Z,95.31
2022-12-12T21:13:53.756Z,94.59
2022-12-12T21:16:56.854Z,94.46
2022-12-12T21:20:03.174Z,94.92
2022-12-12T21:23:07.990Z,94.51
2022-12-12T21:26:16.709Z,95.21
2022-12-12T21:29:20.350Z,95.41
2022-12-12T21:32:22.244Z,95.07
2022-12-12T21:35:24.103Z,95.24
2022-12-12T21:38:25.781Z,95.27
2022-12-12T21:41:28.982Z,94.97
2022-12-12T21:44:30.605Z,95.23
2022-12-12T21:47:32.403Z,95.56
2022-12-12T21:50:33.954Z,95.30
2022-12-12T21:53:35.760Z,95.20
2022-12-12T21:56:39.385Z,95.22
2022-12-12T21:59:41.983Z,95.13
2022-12-12T22:02:46.985Z,94.92
2022-12-12T22:05:51.734Z,95.26
2022-12-12T22:08:54.948Z,95.64
2022-12-12T22:12:04.274Z,95.31
2022-12-12T22:15:06.444Z,95.10
2022-12-12T22:18:08.051Z,95.25
2022-12-12T22:21:10.434Z,95.15
2022-12-12T22:24:12.011Z,95.09
2022-12-12T22:27:15.325Z,95.10
2022-12-12T22:30:17.799Z,95.29
2022-12-12T22:33:19.368Z,95.39
2022-12-12T22:36:24.499Z,95.15
2022-12-12T22:39:27.649Z,95.21
2022-12-12T22:42:30.605Z,95.52
2022-12-12T22:45:33.951Z,94.86
2022-12-12T22:48:35.757Z,94.75
2022-12-12T22:51:39.864Z,95.37
2022-12-12T22:54:41.574Z,95.97
2022-12-12T22:57:46.467Z,95.41
2022-12-12T23:00:48.025Z,95.36
2022-12-12T23:03:49.710Z,95.50
2022-12-12T23:06:51.556Z,95.06
2022-12-12T23:09:53.320Z,94.93
2022-12-12T23:12:56.425Z,95.21
2022-12-12T23:15:58.263Z,95.23
2022-12-12T23:19:00.021Z,94.95
2022-12-12T23:22:01.781Z,95.00
2022-12-12T23:25:03.813Z,94.92
2022-12-12T23:28:12.191Z,95.33
2022-12-12T23:31:16.604Z,94.99
2022-12-12T23:34:21.008Z,95.08
2022-12-12T23:37:23.995Z,95.61
2022-12-12T23:40:25.640Z,95.22
2022-12-12T23:43:30.090Z,95.29
2022-12-12T23:46:32.408Z,94.68
2022-12-12T23:49:34.066Z,94.74
2022-12-12T23:52:35.707Z,95.30
2022-12-12T23:55:37.292Z,95.67
2022-12-12T23:58:40.236Z,95.32
